createdAt,value
2023-04-16T00:02:15.889Z,93.71
2023-04-16T00:07:17.645Z,93.90
2023-04-16T00:12:19.296Z,94.29
2023-04-16T00:17:20.907Z,94.44
2023-04-16T00:22:22.544Z,94.25
2023-04-16T00:27:24.547Z,93.66
2023-04-16T00:32:26.373Z,93.50
2023-04-16T00:37:28.050Z,93.78
2023-04-16T00:42:30.199Z,94.23
2023-04-16T00:47:32.035Z,94.36
2023-04-16T00:52:34.495Z,94.83
2023-04-16T00:57:36.239Z,94.58
2023-04-16T01:02:38.480Z,94.75
2023-04-16T01:07:40.266Z,94.71
2023-04-16T01:12:41.936Z,94.62
2023-04-16T01:17:45.560Z,94.11
2023-04-16T01:22:47.289Z,94.30
2023-04-16T01:27:54.772Z,94.64
2023-04-16T01:32:57.798Z,95.31
2023-04-16T01:37:59.539Z,95.31
2023-04-16T01:43:01.223Z,95.10
2023-04-16T01:48:03.662Z,94.90
2023-04-16T01:53:05.386Z,95.08
2023-04-16T01:58:10.565Z,94.36
2023-04-16T02:03:12.776Z,94.10
2023-04-16T02:08:14.664Z,94.03
2023-04-16T02:13:16.716Z,93.99
2023-04-16T02:18:21.234Z,94.32
2023-04-16T02:23:23.344Z,94.29
2023-04-16T02:28:25.231Z,94.04
2023-04-16T02:33:26.915Z,93.82
2023-04-16T02:38:37.427Z,93.80
2023-04-16T02:43:39.355Z,94.04
2023-04-16T02:48:41.057Z,93.79
2023-04-16T02:53:45.926Z,93.91
2023-04-16T02:58:48.115Z,93.55
2023-04-16T03:03:49.988Z,93.33
2023-04-16T03:08:51.887Z,93.47
2023-04-16T03:13:53.865Z,93.81
2023-04-16T03:18:55.686Z,93.55
2023-04-16T03:23:57.560Z,93.29
2023-04-16T03:28:59.938Z,93.27
2023-04-16T03:34:03.627Z,93.38
2023-04-16T03:39:06.422Z,93.21
2023-04-16T03:44:08.244Z,93.45
2023-04-16T03:49:10.585Z,93.29
2023-04-16T03:54:13.410Z,93.46
2023-04-16T03:59:17.103Z,93.42
2023-04-16T04:04:19.450Z,93.20
2023-04-16T04:09:21.433Z,93.58
2023-04-16T04:14:23.158Z,93.91
2023-04-16T04:19:24.821Z,93.79
2023-04-16T04:24:27.071Z,93.59
2023-04-16T04:29:29.094Z,93.66
2023-04-16T04:34:30.948Z,93.63
2023-04-16T04:39:33.611Z,93.45
2023-04-16T04:44:36.374Z,93.36
2023-04-16T04:49:38.044Z,93.26
2023-04-16T04:54:41.685Z,93.27
2023-04-16T04:59:43.526Z,93.52
2023-04-16T05:04:49.491Z,93.63
2023-04-16T05:09:51.921Z,93.88
2023-04-16T05:14:53.734Z,93.88
2023-04-16T05:19:55.342Z,93.76
2023-04-16T05:24:56.900Z,93.94
2023-04-16T05:29:58.465Z,94.11
2023-04-16T05:35:00.038Z,94.27
2023-04-16T05:40:02.315Z,94.41
2023-04-16T05:45:04.859Z,94.52
2023-04-16T05:50:06.887Z,94.61
2023-04-16T05:55:08.912Z,94.73
2023-04-16T06:00:10.918Z,94.47
2023-04-16T06:05:15.861Z,94.48
2023-04-16T06:10:17.553Z,94.40
2023-04-16T06:15:19.249Z,94.54
2023-04-16T06:20:20.939Z,94.46
2023-04-16T06:25:22.612Z,94.56
2023-04-16T06:30:24.223Z,94.63
2023-04-16T06:35:25.938Z,94.58
2023-04-16T06:40:27.725Z,94.66
2023-04-16T06:45:29.592Z,94.58
2023-04-16T06:50:31.403Z,94.36
2023-04-16T06:55:32.983Z,94.76
2023-04-16T07:00:35.184Z,94.78
2023-04-16T07:05:36.829Z,94.40
2023-04-16T07:10:38.490Z,94.11
2023-04-16T07:15:40.157Z,93.90
2023-04-16T07:20:41.895Z,93.94
2023-04-16T07:25:44.534Z,94.41
2023-04-16T07:30:46.237Z,94.08
2023-04-16T07:35:47.937Z,93.82
2023-04-16T07:40:49.977Z,94.09
2023-04-16T07:45:51.736Z,93.84
2023-04-16T07:53:50.265Z,93.53
2023-04-16T07:58:51.863Z,93.28
2023-04-16T08:03:53.612Z,92.63
2023-04-16T08:08:55.971Z,91.84
2023-04-16T08:13:57.639Z,91.44
2023-04-16T08:19:01.053Z,91.05
2023-04-16T08:24:02.705Z,90.38
2023-04-16T08:29:04.584Z,89.41
2023-04-16T08:34:06.141Z,87.48
2023-04-16T08:39:08.426Z,87.14
2023-04-16T08:44:14.749Z,86.60
2023-04-16T08:49:20.700Z,86.88
2023-04-16T08:54:40.973Z,85.04
2023-04-16T08:59:46.070Z,85.29
2023-04-16T09:04:48.504Z,84.12
2023-04-16T09:09:53.153Z,83.49
2023-04-16T09:14:56.971Z,82.55
2023-04-16T09:19:58.557Z,81.85
2023-04-16T09:25:00.306Z,80.57
2023-04-16T09:30:01.921Z,79.61
2023-04-16T09:35:03.685Z,78.26
2023-04-16T09:40:13.890Z,78.83
2023-04-16T09:45:19.537Z,78.24
2023-04-16T09:50:21.591Z,78.17
2023-04-16T09:55:23.794Z,78.42
2023-04-16T10:00:25.512Z,77.77
2023-04-16T10:05:27.481Z,77.98
2023-04-16T10:10:29.637Z,78.08
2023-04-16T10:15:31.378Z,78.24
2023-04-16T10:20:33.030Z,77.65
2023-04-16T10:25:35.183Z,77.56
2023-04-16T10:30:37.534Z,77.44
2023-04-16T10:35:40.385Z,77.49
2023-04-16T10:40:44.711Z,77.02
2023-04-16T10:45:47.521Z,76.27
2023-04-16T10:50:57.262Z,76.95
2023-04-16T10:56:11.046Z,77.15
2023-04-16T11:01:13.697Z,76.81
2023-04-16T11:06:17.518Z,76.68
2023-04-16T11:11:19.958Z,77.01
2023-04-16T11:16:21.631Z,77.49
2023-04-16T11:21:23.408Z,76.04
2023-04-16T11:26:26.423Z,75.82
2023-04-16T11:31:28.264Z,75.34
2023-04-16T11:36:42.847Z,74.70
2023-04-16T11:41:44.746Z,75.20
2023-04-16T11:46:46.406Z,74.65
2023-04-16T11:51:48.153Z,74.34
2023-04-16T11:56:50.969Z,73.56
2023-04-16T12:01:55.484Z,73.63
2023-04-16T12:07:06.759Z,74.93
2023-04-16T12:12:27.496Z,75.04
2023-04-16T12:17:30.225Z,74.81
2023-04-16T12:22:37.068Z,74.81
2023-04-16T12:27:50.718Z,74.78
2023-04-16T12:33:14.154Z,73.81
2023-04-16T12:38:15.896Z,74.41
2023-04-16T12:43:17.936Z,74.09
2023-04-16T12:48:19.536Z,73.42
2023-04-16T12:53:21.153Z,73.61
2023-04-16T12:58:23.182Z,73.36
2023-04-16T13:03:24.919Z,72.94
2023-04-16T13:08:26.689Z,73.09
2023-04-16T13:13:29.151Z,72.73
2023-04-16T13:18:30.920Z,73.19
2023-04-16T13:23:32.500Z,73.92
2023-04-16T13:28:34.636Z,73.48
2023-04-16T13:33:36.313Z,73.28
2023-04-16T13:38:39.468Z,73.17
2023-04-16T13:43:41.347Z,72.03
2023-04-16T13:48:43.085Z,72.22
2023-04-16T13:53:45.233Z,72.51
2023-04-16T13:58:46.836Z,71.09
2023-04-16T14:03:48.996Z,71.50
2023-04-16T14:08:50.768Z,70.86
2023-04-16T14:13:52.775Z,70.07
2023-04-16T14:18:54.353Z,69.65
2023-04-16T14:23:56.157Z,70.08
2023-04-16T14:28:57.715Z,69.76
2023-04-16T14:33:59.639Z,69.76
2023-04-16T14:39:01.373Z,70.27
2023-04-16T14:44:04.247Z,70.33
2023-04-16T14:49:06.024Z,70.41
2023-04-16T14:54:07.595Z,70.43
2023-04-16T14:59:09.634Z,70.48
2023-04-16T15:04:11.795Z,70.71
2023-04-16T15:09:13.484Z,70.15
2023-04-16T15:14:15.065Z,70.04
2023-04-16T15:19:16.693Z,69.84
2023-04-16T15:24:18.338Z,69.40
2023-04-16T15:29:19.995Z,69.60
2023-04-16T15:34:21.690Z,68.62
2023-04-16T15:39:23.285Z,69.06
2023-04-16T15:44:26.067Z,68.84
2023-04-16T15:49:27.742Z,68.55
2023-04-16T15:54:29.625Z,68.96
2023-04-16T15:59:31.322Z,68.83
2023-04-16T16:04:32.969Z,68.74
2023-04-16T16:09:35.461Z,68.59
2023-04-16T16:14:37.712Z,68.79
2023-04-16T16:19:39.268Z,69.20
2023-04-16T16:24:40.872Z,69.15
2023-04-16T16:29:42.474Z,69.11
2023-04-16T16:34:44.098Z,68.95
2023-04-16T16:39:45.899Z,68.87
2023-04-16T16:44:48.745Z,68.88
2023-04-16T16:49:50.519Z,69.38
2023-04-16T16:54:56.733Z,69.21
2023-04-16T16:59:59.002Z,71.08
2023-04-16T17:05:01.126Z,74.37
2023-04-16T17:10:06.083Z,75.79
2023-04-16T17:15:08.740Z,76.09
2023-04-16T17:20:12.254Z,76.25
2023-04-16T17:25:14.188Z,76.45
2023-04-16T17:30:16.374Z,76.61
2023-04-16T17:35:17.937Z,76.53
2023-04-16T17:40:19.713Z,76.26
2023-04-16T17:45:21.378Z,76.29
2023-04-16T17:50:22.990Z,76.27
2023-04-16T17:55:24.997Z,76.49
2023-04-16T18:00:26.560Z,76.80
2023-04-16T18:05:28.350Z,76.24
2023-04-16T18:10:31.556Z,77.31
2023-04-16T18:15:39.232Z,78.21
2023-04-16T18:20:41.019Z,78.51
2023-04-16T18:25:42.732Z,79.09
2023-04-16T18:30:44.667Z,79.54
2023-04-16T18:35:46.313Z,79.86
2023-04-16T18:40:49.706Z,80.43
2023-04-16T18:45:51.675Z,80.76
2023-04-16T18:50:54.181Z,81.09
2023-04-16T18:55:56.143Z,81.17
2023-04-16T19:01:01.276Z,81.03
2023-04-16T19:06:02.926Z,80.50
2023-04-16T19:11:04.496Z,81.58
2023-04-16T19:16:11.865Z,81.12
2023-04-16T19:21:13.586Z,81.11
2023-04-16T19:26:17.735Z,81.42
2023-04-16T19:31:19.338Z,81.57
2023-04-16T19:36:21.175Z,81.73
2023-04-16T19:41:22.798Z,81.77
2023-04-16T19:46:24.485Z,82.27
2023-04-16T19:51:27.008Z,82.63
2023-04-16T19:56:28.631Z,82.64
2023-04-16T20:01:32.985Z,82.53
2023-04-16T20:06:34.722Z,82.49
2023-04-16T20:11:36.635Z,82.21
2023-04-16T20:16:38.709Z,82.05
2023-04-16T20:21:40.606Z,82.53
2023-04-16T20:26:42.267Z,82.35
2023-04-16T20:31:45.871Z,82.42
2023-04-16T20:36:47.587Z,82.58
2023-04-16T20:41:56.612Z,82.66
2023-04-16T20:46:59.455Z,82.81
2023-04-16T20:52:02.122Z,82.82
2023-04-16T20:57:04.883Z,82.51
2023-04-16T21:02:07.668Z,82.76
2023-04-16T21:07:09.497Z,83.02
2023-04-16T21:12:11.354Z,83.75
2023-04-16T21:17:12.912Z,83.85
2023-04-16T21:22:14.929Z,83.88
2023-04-16T21:27:16.624Z,84.13
2023-04-16T21:32:18.460Z,84.25
2023-04-16T21:37:20.145Z,84.39
2023-04-16T21:42:21.768Z,84.16
2023-04-16T21:47:23.486Z,83.91
2023-04-16T21:52:25.231Z,83.99
2023-04-16T21:57:27.545Z,84.60
2023-04-16T22:02:29.325Z,84.87
2023-04-16T22:07:31.006Z,84.84
2023-04-16T22:12:32.711Z,85.15
2023-04-16T22:17:34.710Z,85.19
2023-04-16T22:22:36.449Z,85.49
2023-04-16T22:27:38.116Z,85.88
2023-04-16T22:32:40.062Z,86.20
2023-04-16T22:37:41.981Z,85.78
2023-04-16T22:42:43.680Z,85.50
2023-04-16T22:47:45.790Z,85.21
2023-04-16T22:52:47.752Z,85.33
2023-04-16T22:57:49.359Z,85.69
2023-04-16T23:02:51.033Z,85.32
2023-04-16T23:07:52.679Z,85.45
2023-04-16T23:12:54.345Z,85.91
2023-04-16T23:17:56.075Z,85.85
2023-04-16T23:22:57.837Z,85.32
2023-04-16T23:27:59.494Z,85.65
2023-04-16T23:33:01.202Z,85.72
2023-04-16T23:38:03.335Z,85.19
2023-04-16T23:43:05.200Z,85.13
2023-04-16T23:48:06.886Z,84.94
2023-04-16T23:53:08.474Z,85.13
2023-04-16T23:58:10.288Z,85.30
